Time;durP1;ratioP1;P1;durP2;ratioP2;P2;SDS_P1;SDS_P2;PMS_P1;PMS_P2;Temp;Humidity;BMP_temperature;BMP_pressure;BME280_temperature;BME280_humidity;BME280_pressure;Samples;Min_cycle;Max_cycle;Signal;HPM_P1;HPM_P2
2021/08/07 00:00:58;;;;;;;1.27;0.77;;;;;;;17.86;nan;99664.16;5050217;28;20061;-75
2021/08/07 00:03:24;;;;;;;1.80;0.70;;;;;;;17.87;nan;99663.09;5050320;28;20508;-75
2021/08/07 00:05:49;;;;;;;1.88;0.90;;;;;;;17.90;nan;99661.84;5050004;28;20132;-75
2021/08/07 00:08:15;;;;;;;1.17;0.57;;;;;;;17.88;nan;99654.06;5049505;28;20548;-75
2021/08/07 00:10:40;;;;;;;0.80;0.60;;;;;;;17.89;nan;99663.69;5050152;28;20029;-76
2021/08/07 00:13:05;;;;;;;1.42;0.70;;;;;;;17.89;nan;99670.91;5049527;28;20037;-75
2021/08/07 00:15:31;;;;;;;0.73;0.60;;;;;;;17.88;nan;99659.41;5050300;28;20128;-78
2021/08/07 00:17:56;;;;;;;0.63;0.60;;;;;;;17.85;nan;99654.47;5050045;28;20052;-76
2021/08/07 00:20:22;;;;;;;1.33;0.60;;;;;;;17.84;nan;99650.19;5049871;28;20033;-76
2021/08/07 00:22:47;;;;;;;1.58;0.57;;;;;;;17.83;nan;99641.34;5049882;28;20086;-75
2021/08/07 00:25:13;;;;;;;1.63;0.70;;;;;;;17.79;nan;99644.66;5050085;28;20072;-75
2021/08/07 00:27:38;;;;;;;1.00;0.60;;;;;;;17.71;nan;99643.09;5050250;28;20110;-75
2021/08/07 00:30:05;;;;;;;1.90;0.60;;;;;;;17.67;nan;99646.41;5049070;28;20041;-75
2021/08/07 00:32:31;;;;;;;1.17;0.70;;;;;;;17.55;nan;99641.78;5048614;28;20056;-75
2021/08/07 00:34:56;;;;;;;1.77;0.80;;;;;;;17.44;nan;99642.47;5047885;28;20037;-75
2021/08/07 00:37:22;;;;;;;1.33;0.55;;;;;;;17.38;nan;99652.19;5050319;28;20041;-75
2021/08/07 00:39:47;;;;;;;1.20;0.60;;;;;;;17.35;nan;99649.13;5045348;28;20056;-75
2021/08/07 00:42:12;;;;;;;1.02;0.60;;;;;;;17.33;nan;99646.69;5049560;28;20036;-75
2021/08/07 00:44:38;;;;;;;1.15;0.70;;;;;;;17.32;nan;99642.38;5049241;28;20098;-75
2021/08/07 00:47:03;;;;;;;1.75;0.70;;;;;;;17.35;nan;99636.59;5049908;28;20412;-75
2021/08/07 00:49:29;;;;;;;2.80;0.70;;;;;;;17.42;nan;99628.50;5050074;28;20302;-75
2021/08/07 00:51:54;;;;;;;1.63;0.75;;;;;;;17.51;nan;99626.38;5049702;28;20033;-75
2021/08/07 00:54:19;;;;;;;1.42;0.85;;;;;;;17.56;nan;99626.53;5049679;28;20056;-75
2021/08/07 00:56:45;;;;;;;1.23;0.70;;;;;;;17.62;nan;99628.34;5049429;28;20112;-75
2021/08/07 00:59:10;;;;;;;1.45;0.80;;;;;;;17.59;nan;99632.28;5050499;28;20048;-75
2021/08/07 01:01:50;;;;;;;2.50;0.80;;;;;;;17.57;nan;99641.56;5049463;28;20543;-75
2021/08/07 01:04:24;;;;;;;1.10;0.70;;;;;;;17.42;nan;99633.84;5048402;28;20035;-75
2021/08/07 01:07:36;;;;;;;1.52;0.75;;;;;;;17.33;nan;99627.16;5048781;28;20025;-75
2021/08/07 01:10:07;;;;;;;1.10;0.63;;;;;;;17.31;nan;99618.56;5036571;28;20567;-75
2021/08/07 01:12:48;;;;;;;1.83;0.80;;;;;;;17.17;nan;99623.97;5049047;28;20033;-76
2021/08/07 01:15:23;;;;;;;1.10;0.70;;;;;;;17.17;nan;99621.31;5034789;28;20383;-76
2021/08/07 01:17:51;;;;;;;1.15;0.85;;;;;;;17.15;nan;99623.38;5049157;28;20508;-75
2021/08/07 01:20:27;;;;;;;1.88;0.80;;;;;;;17.16;nan;99625.03;5049044;28;20037;-75
2021/08/07 01:23:18;;;;;;;1.55;0.70;;;;;;;17.17;nan;99620.50;5049860;28;20086;-76
2021/08/07 01:26:00;;;;;;;;;;;;;;;17.18;nan;99627.47;5048846;28;20535;-75
2021/08/07 01:28:26;;;;;;;;;;;;;;;17.20;nan;99623.53;5049659;28;19921;-75
2021/08/07 01:30:53;;;;;;;1.10;0.68;;;;;;;17.22;nan;99628.69;5048780;28;19920;-76
2021/08/07 01:33:21;;;;;;;0.95;0.70;;;;;;;17.16;nan;99630.38;5049262;28;20079;-76
2021/08/07 01:35:49;;;;;;;0.95;0.68;;;;;;;17.03;nan;99617.09;5049086;28;20029;-76
2021/08/07 01:38:15;;;;;;;1.20;0.70;;;;;;;16.92;nan;99623.97;5052856;28;20045;-75
2021/08/07 01:40:41;;;;;;;0.82;0.65;;;;;;;16.79;nan;99618.69;5053272;28;20040;-75
2021/08/07 01:43:06;;;;;;;1.38;0.70;;;;;;;16.67;nan;99618.53;5051705;28;20029;-75
2021/08/07 01:45:32;;;;;;;0.93;0.60;;;;;;;16.61;nan;99616.69;5052301;28;20242;-75
2021/08/07 01:48:18;;;;;;;1.25;0.70;;;;;;;16.52;nan;99623.34;5052433;28;20041;-75
2021/08/07 01:50:50;;;;;;;2.35;0.80;;;;;;;16.43;nan;99616.59;5051343;28;20136;-75
2021/08/07 01:53:22;;;;;;;1.23;0.70;;;;;;;16.41;nan;99614.13;5051396;28;20199;-75
2021/08/07 01:56:04;;;;;;;0.93;0.63;;;;;;;16.46;nan;99606.31;5044567;28;20378;-75
2021/08/07 01:58:33;;;;;;;1.38;0.75;;;;;;;16.43;nan;99611.28;5044712;28;20063;-75
2021/08/07 02:01:02;;;;;;;1.55;0.80;;;;;;;16.33;nan;99615.22;5050865;28;20067;-75
2021/08/07 02:03:29;;;;;;;2.13;0.60;;;;;;;16.29;nan;99608.66;5052545;28;20151;-75
2021/08/07 02:05:55;;;;;;;1.25;0.68;;;;;;;16.22;nan;99618.53;5050903;28;20444;-75
2021/08/07 02:08:20;;;;;;;1.75;0.90;;;;;;;16.12;nan;99610.16;5049653;28;20057;-75
2021/08/07 02:10:48;;;;;;;1.35;0.75;;;;;;;16.07;nan;99608.13;5050950;28;20071;-75
2021/08/07 02:13:16;;;;;;;2.42;0.60;;;;;;;16.05;nan;99606.69;5052959;28;20037;-75
2021/08/07 02:15:42;;;;;;;2.10;0.85;;;;;;;16.08;nan;99596.41;5052876;28;20063;-75
2021/08/07 02:18:11;;;;;;;0.88;0.80;;;;;;;16.09;nan;99598.06;5051609;28;20468;-75
2021/08/07 02:20:38;;;;;;;0.90;0.70;;;;;;;16.06;nan;99606.47;5050439;28;20052;-76
2021/08/07 02:23:04;;;;;;;0.77;0.60;;;;;;;15.98;nan;99604.03;5049820;28;20029;-75
2021/08/07 02:25:29;;;;;;;1.60;0.90;;;;;;;15.96;nan;99597.28;5049399;28;20095;-75
2021/08/07 02:27:56;;;;;;;1.50;0.80;;;;;;;16.00;nan;99586.00;5049563;28;20037;-75
2021/08/07 02:30:22;;;;;;;1.77;0.70;;;;;;;15.97;nan;99590.91;5048456;28;20045;-75
2021/08/07 02:32:47;;;;;;;1.17;0.73;;;;;;;15.97;nan;99594.41;5048908;28;20033;-75
2021/08/07 02:35:13;;;;;;;1.15;0.77;;;;;;;15.94;nan;99581.47;5049266;28;20041;-75
2021/08/07 02:37:40;;;;;;;1.27;0.80;;;;;;;15.96;nan;99594.63;5049335;28;20493;-76
2021/08/07 02:40:08;;;;;;;1.90;0.80;;;;;;;15.89;nan;99592.78;5047252;28;20037;-76
2021/08/07 02:42:34;;;;;;;2.17;0.70;;;;;;;15.92;nan;99591.53;5049329;28;20041;-76
2021/08/07 02:45:02;;;;;;;1.23;0.70;;;;;;;15.98;nan;99587.22;5050194;28;20098;-76
2021/08/07 02:47:29;;;;;;;1.35;0.70;;;;;;;16.04;nan;99586.38;5050982;28;20287;-76
2021/08/07 02:49:54;;;;;;;1.23;0.90;;;;;;;16.14;nan;99579.56;5052211;28;20033;-76
2021/08/07 02:52:20;;;;;;;1.35;0.70;;;;;;;16.11;nan;99579.16;5051005;28;20048;-76
2021/08/07 02:54:48;;;;;;;1.25;0.73;;;;;;;16.08;nan;99582.25;5051509;28;20101;-76
2021/08/07 02:57:13;;;;;;;1.35;0.68;;;;;;;16.09;nan;99575.91;5051744;28;20037;-76
2021/08/07 02:59:40;;;;;;;1.02;0.80;;;;;;;16.13;nan;99571.78;5051551;28;20033;-75
2021/08/07 03:02:06;;;;;;;;;;;;;;;16.16;nan;99558.03;5050533;28;20135;-76
2021/08/07 03:04:31;;;;;;;2.42;0.80;;;;;;;16.18;nan;99561.28;5051095;28;19917;-76
2021/08/07 03:06:57;;;;;;;0.75;0.60;;;;;;;16.17;nan;99557.00;5051362;28;20055;-76
2021/08/07 03:09:22;;;;;;;1.15;0.73;;;;;;;16.15;nan;99561.72;5051014;28;20102;-76
2021/08/07 03:11:47;;;;;;;1.27;0.70;;;;;;;16.16;nan;99560.72;5051281;28;20064;-76
2021/08/07 03:14:13;;;;;;;1.35;0.70;;;;;;;16.14;nan;99563.56;5050458;28;20037;-75
2021/08/07 03:16:39;;;;;;;1.38;0.82;;;;;;;16.11;nan;99565.84;5050820;28;20527;-76
2021/08/07 03:19:04;;;;;;;0.88;0.65;;;;;;;16.14;nan;99558.25;5051050;28;20025;-76
2021/08/07 03:21:30;;;;;;;0.63;0.60;;;;;;;16.23;nan;99552.66;5049338;28;20444;-76
2021/08/07 03:23:58;;;;;;;0.68;0.60;;;;;;;16.27;nan;99560.03;5050437;28;20037;-76
2021/08/07 03:26:24;;;;;;;1.05;0.60;;;;;;;16.28;nan;99563.50;5049973;28;20433;-76
2021/08/07 03:28:49;;;;;;;1.10;0.70;;;;;;;16.24;nan;99565.78;5050185;28;20044;-76
2021/08/07 03:31:15;;;;;;;1.67;0.77;;;;;;;16.29;nan;99570.50;5050404;28;20037;-75
2021/08/07 03:33:40;;;;;;;0.90;0.60;;;;;;;16.33;nan;99561.03;5048839;28;20390;-76
2021/08/07 03:36:06;;;;;;;1.90;0.80;;;;;;;16.32;nan;99548.72;5044575;28;20067;-76
2021/08/07 03:38:31;;;;;;;2.15;0.90;;;;;;;16.30;nan;99548.94;5050005;28;20044;-75
2021/08/07 03:40:56;;;;;;;2.85;0.70;;;;;;;16.28;nan;99553.66;5050246;28;20111;-76
2021/08/07 03:43:22;;;;;;;1.33;0.80;;;;;;;16.28;nan;99552.81;5049838;28;20078;-76
2021/08/07 03:45:47;;;;;;;1.55;0.80;;;;;;;16.27;nan;99551.19;5050127;28;20036;-76
2021/08/07 03:48:13;;;;;;;1.95;0.80;;;;;;;16.26;nan;99545.06;5048892;28;20037;-75
2021/08/07 03:50:38;;;;;;;1.52;0.70;;;;;;;16.28;nan;99544.81;5049795;28;20067;-76
2021/08/07 03:53:03;;;;;;;0.95;0.70;;;;;;;16.31;nan;99547.91;5048811;28;20347;-76
2021/08/07 03:55:29;;;;;;;0.70;0.60;;;;;;;16.32;nan;99549.53;5050053;28;20048;-76
2021/08/07 03:57:58;;;;;;;1.10;0.63;;;;;;;16.30;nan;99553.44;5049436;28;20043;-76
2021/08/07 04:00:26;;;;;;;1.67;0.77;;;;;;;16.33;nan;99545.84;5048312;28;20037;-76
2021/08/07 04:02:51;;;;;;;1.00;0.60;;;;;;;16.39;nan;99546.00;5044943;28;20086;-76
2021/08/07 04:05:17;;;;;;;1.67;0.77;;;;;;;16.40;nan;99534.28;5035901;28;20036;-75
2021/08/07 04:07:42;;;;;;;0.90;0.52;;;;;;;16.37;nan;99540.06;5047385;28;20041;-76
2021/08/07 04:10:08;;;;;;;0.93;0.70;;;;;;;16.37;nan;99543.56;5041211;28;20044;-76
2021/08/07 04:12:34;;;;;;;1.13;0.60;;;;;;;16.33;nan;99529.84;5050867;28;20052;-76
2021/08/07 04:15:00;;;;;;;1.23;0.73;;;;;;;16.31;nan;99528.41;5048247;28;20522;-76
2021/08/07 04:17:25;;;;;;;1.10;0.70;;;;;;;16.29;nan;99528.63;5048860;28;20532;-76
2021/08/07 04:19:50;;;;;;;1.77;0.70;;;;;;;16.27;nan;99528.00;5050178;28;20196;-75
2021/08/07 04:22:15;;;;;;;1.13;0.70;;;;;;;16.29;nan;99531.28;5049694;28;20029;-75
2021/08/07 04:24:41;;;;;;;0.80;0.60;;;;;;;16.30;nan;99534.75;5045546;28;20116;-76
2021/08/07 04:27:06;;;;;;;0.88;0.50;;;;;;;16.30;nan;99532.09;5047950;28;20052;-76
2021/08/07 04:29:31;;;;;;;2.03;0.93;;;;;;;16.28;nan;99542.16;5049971;28;20510;-76
2021/08/07 04:31:57;;;;;;;0.95;0.68;;;;;;;16.25;nan;99537.25;5050120;28;20064;-75
2021/08/07 04:34:22;;;;;;;0.93;0.70;;;;;;;16.25;nan;99531.91;5042151;28;20045;-75
2021/08/07 04:36:47;;;;;;;1.55;1.02;;;;;;;16.24;nan;99536.44;5049826;28;20061;-76
2021/08/07 04:39:13;;;;;;;1.65;0.90;;;;;;;16.24;nan;99527.63;5050064;28;20485;-75
2021/08/07 04:41:40;;;;;;;1.80;0.90;;;;;;;16.24;nan;99536.44;5050288;28;20048;-75
2021/08/07 04:44:06;;;;;;;1.13;0.70;;;;;;;16.26;nan;99545.06;5048950;28;20033;-76
2021/08/07 04:46:31;;;;;;;1.23;0.80;;;;;;;16.30;nan;99540.94;5049747;28;20095;-76
2021/08/07 04:48:56;;;;;;;2.28;0.70;;;;;;;16.34;nan;99550.13;5049454;28;20041;-75
2021/08/07 04:51:21;;;;;;;2.35;0.85;;;;;;;16.42;nan;99550.91;5049966;28;20037;-75
2021/08/07 04:53:47;;;;;;;0.98;0.70;;;;;;;16.49;nan;99549.88;5045661;28;20494;-76
2021/08/07 04:56:12;;;;;;;1.60;0.83;;;;;;;16.59;nan;99543.22;5037541;28;20037;-76
2021/08/07 04:58:37;;;;;;;1.15;0.80;;;;;;;16.67;nan;99534.97;5050220;28;20264;-76
2021/08/07 05:01:02;;;;;;;1.10;0.68;;;;;;;16.76;nan;99536.34;5048703;28;20703;-76
2021/08/07 05:03:28;;;;;;;1.77;0.80;;;;;;;16.89;nan;99535.44;5049479;28;20441;-76
2021/08/07 05:05:53;;;;;;;2.00;0.95;;;;;;;16.91;nan;99530.72;5048823;28;20087;-76
2021/08/07 05:08:18;;;;;;;3.63;1.33;;;;;;;16.92;nan;99518.97;5049029;28;20102;-76
2021/08/07 05:10:44;;;;;;;2.85;1.00;;;;;;;16.92;nan;99527.84;5051364;28;20086;-76
2021/08/07 05:13:09;;;;;;;1.70;0.90;;;;;;;16.98;nan;99523.47;5053458;28;20041;-76
2021/08/07 05:15:35;;;;;;;1.55;0.68;;;;;;;17.05;nan;99520.75;5053592;28;20126;-75
2021/08/07 05:18:02;;;;;;;1.02;0.65;;;;;;;17.12;nan;99518.84;5053775;28;20047;-76
2021/08/07 05:20:27;;;;;;;1.27;0.57;;;;;;;17.18;nan;99521.44;5053403;28;20307;-76
2021/08/07 05:22:53;;;;;;;1.67;0.80;;;;;;;17.21;nan;99520.19;5053221;28;20036;-76
2021/08/07 05:25:18;;;;;;;1.92;0.90;;;;;;;17.20;nan;99529.22;5051614;28;20033;-75
2021/08/07 05:27:43;;;;;;;1.88;0.90;;;;;;;17.19;nan;99519.59;5051932;28;20044;-76
2021/08/07 05:30:09;;;;;;;1.05;0.70;;;;;;;17.26;nan;99522.22;5052716;28;20036;-76
2021/08/07 05:32:35;;;;;;;1.00;0.70;;;;;;;17.36;nan;99511.81;5053272;28;20040;-76
2021/08/07 05:35:00;;;;;;;0.90;0.70;;;;;;;17.41;nan;99509.28;5052784;28;20060;-76
2021/08/07 05:37:25;;;;;;;1.48;0.70;;;;;;;17.47;nan;99510.25;5052920;28;20425;-75
2021/08/07 05:39:51;;;;;;;2.53;0.77;;;;;;;17.51;nan;99504.25;5052919;28;20532;-76
2021/08/07 05:42:16;;;;;;;1.13;0.60;;;;;;;17.55;nan;99493.94;5052212;28;20068;-76
2021/08/07 05:44:41;;;;;;;1.15;0.80;;;;;;;17.67;nan;99494.03;5051895;28;20036;-76
2021/08/07 05:47:06;;;;;;;1.40;0.70;;;;;;;17.75;nan;99494.50;5051893;28;20033;-75
2021/08/07 05:49:32;;;;;;;0.90;0.70;;;;;;;17.83;nan;99504.97;5052602;28;20033;-76
2021/08/07 05:51:57;;;;;;;0.98;0.60;;;;;;;17.94;nan;99502.56;5052958;28;20067;-76
2021/08/07 05:54:23;;;;;;;2.92;0.68;;;;;;;18.04;nan;99498.31;5051793;28;20282;-76
2021/08/07 05:56:48;;;;;;;1.88;0.77;;;;;;;18.08;nan;99495.19;5052206;28;20453;-76
2021/08/07 05:59:14;;;;;;;1.65;0.95;;;;;;;18.15;nan;99503.94;5052822;28;20047;-76
2021/08/07 06:01:39;;;;;;;1.48;0.80;;;;;;;18.20;nan;99504.06;5051978;28;20147;-75
2021/08/07 06:04:04;;;;;;;0.90;0.50;;;;;;;18.29;nan;99508.06;5050323;28;20035;-75
2021/08/07 06:06:30;;;;;;;2.97;0.80;;;;;;;18.38;nan;99520.09;5039076;28;20448;-76
2021/08/07 06:08:55;;;;;;;1.67;0.80;;;;;;;18.52;nan;99514.53;5051768;28;20040;-76
2021/08/07 06:11:20;;;;;;;3.65;0.80;;;;;;;18.68;nan;99516.56;5051727;28;20120;-76
2021/08/07 06:13:46;;;;;;;2.50;0.90;;;;;;;18.72;nan;99522.28;5048501;28;20040;-75
2021/08/07 06:16:11;;;;;;;1.90;0.90;;;;;;;18.75;nan;99524.50;5035452;28;20122;-76
2021/08/07 06:18:36;;;;;;;;;;;;;;;18.78;nan;99518.69;5052748;28;20175;-76
2021/08/07 06:21:01;;;;;;;1.73;0.80;;;;;;;18.81;nan;99523.63;5051025;28;19970;-75
2021/08/07 06:23:27;;;;;;;2.03;1.00;;;;;;;19.07;nan;99528.53;5049807;28;20292;-76
2021/08/07 06:25:52;;;;;;;2.20;0.90;;;;;;;19.34;nan;99522.72;5051543;28;20037;-76
2021/08/07 06:28:17;;;;;;;3.50;1.00;;;;;;;19.46;nan;99517.34;5050157;28;20539;-76
2021/08/07 06:30:45;;;;;;;1.67;0.90;;;;;;;19.52;nan;99514.53;5052714;28;20067;-76
2021/08/07 06:33:11;;;;;;;1.57;0.80;;;;;;;19.69;nan;99511.97;5051180;28;20440;-76
2021/08/07 06:35:36;;;;;;;1.60;0.77;;;;;;;19.79;nan;99511.38;5051404;28;20805;-76
2021/08/07 06:38:02;;;;;;;1.17;0.70;;;;;;;19.83;nan;99514.38;5051642;28;20406;-75
2021/08/07 06:40:27;;;;;;;;;;;;;;;19.96;nan;99514.13;5052387;28;20037;-76
2021/08/07 06:42:52;;;;;;;;;;;;;;;20.03;nan;99514.00;5052462;28;19917;-76
2021/08/07 06:45:18;;;;;;;;;;;;;;;20.11;nan;99511.72;5051791;28;19928;-76
2021/08/07 06:47:43;;;;;;;;;;;;;;;20.13;nan;99517.66;5051250;28;20448;-76
2021/08/07 06:50:08;;;;;;;;;;;;;;;20.15;nan;99518.25;5051683;28;19921;-76
2021/08/07 06:52:34;;;;;;;;;;;;;;;20.28;nan;99511.75;5052544;28;19917;-76
2021/08/07 06:55:00;;;;;;;1.85;0.80;;;;;;;20.36;nan;99506.03;5051323;28;19917;-76
2021/08/07 06:57:25;;;;;;;;;;;;;;;20.52;nan;99499.06;5052177;28;20506;-76
2021/08/07 06:59:51;;;;;;;1.40;0.90;;;;;;;20.64;nan;99500.88;5052509;28;19920;-76
2021/08/07 07:02:17;;;;;;;2.45;0.80;;;;;;;20.66;nan;99488.03;5051101;28;20029;-76
2021/08/07 07:04:43;;;;;;;1.23;0.80;;;;;;;20.65;nan;99481.84;5051363;28;20378;-76
2021/08/07 07:07:08;;;;;;;2.03;0.85;;;;;;;20.74;nan;99482.25;5052336;28;20037;-76
2021/08/07 07:09:34;;;;;;;1.63;0.80;;;;;;;20.76;nan;99482.81;5050712;28;20048;-75
2021/08/07 07:11:59;;;;;;;1.55;0.73;;;;;;;20.69;nan;99488.38;5050513;28;20029;-76
2021/08/07 07:14:24;;;;;;;1.63;0.85;;;;;;;20.76;nan;99488.19;5049858;28;20049;-76
2021/08/07 07:16:50;;;;;;;1.40;0.80;;;;;;;20.81;nan;99493.66;5051490;28;20033;-76
2021/08/07 07:19:15;;;;;;;2.42;0.80;;;;;;;20.79;nan;99501.94;5051099;28;20107;-76
2021/08/07 07:21:42;;;;;;;1.42;0.80;;;;;;;20.84;nan;99497.72;5052086;28;20032;-76
2021/08/07 07:24:07;;;;;;;;;;;;;;;20.85;nan;99496.66;5051013;28;20029;-76
2021/08/07 07:26:33;;;;;;;2.03;0.90;;;;;;;20.83;nan;99513.00;5049595;28;19970;-76
2021/08/07 07:28:59;;;;;;;3.22;0.98;;;;;;;20.83;nan;99518.38;5050164;28;20272;-76
2021/08/07 07:31:25;;;;;;;1.67;0.90;;;;;;;20.95;nan;99519.16;5051449;28;20033;-76
2021/08/07 07:33:51;;;;;;;4.53;0.95;;;;;;;21.07;nan;99519.06;5049525;28;20033;-76
2021/08/07 07:36:16;;;;;;;;;;;;;;;21.14;nan;99525.09;5049635;28;20060;-76
2021/08/07 07:38:42;;;;;;;4.13;0.80;;;;;;;21.14;nan;99524.25;5050546;28;19917;-76
2021/08/07 07:41:08;;;;;;;1.88;0.80;;;;;;;21.30;nan;99528.78;5051322;28;20033;-76
2021/08/07 07:43:34;;;;;;;2.88;1.05;;;;;;;21.32;nan;99532.06;5049353;28;20063;-76
2021/08/07 07:45:59;;;;;;;2.17;0.93;;;;;;;21.44;nan;99531.19;5050439;28;20037;-76
2021/08/07 07:48:24;;;;;;;3.55;1.00;;;;;;;21.72;nan;99528.34;5049735;28;20124;-76
2021/08/07 07:50:50;;;;;;;2.08;0.90;;;;;;;22.05;nan;99518.50;5049396;28;20110;-77
2021/08/07 07:53:16;;;;;;;2.47;0.93;;;;;;;22.29;nan;99518.25;5049956;28;20164;-76
2021/08/07 07:55:41;;;;;;;3.42;0.90;;;;;;;22.22;nan;99518.44;5050810;28;20573;-76
2021/08/07 07:58:07;;;;;;;2.05;0.90;;;;;;;22.08;nan;99517.19;5051528;28;20263;-76
2021/08/07 08:00:32;;;;;;;3.28;1.10;;;;;;;21.98;nan;99517.88;5050578;28;20041;-76
2021/08/07 08:02:58;;;;;;;2.20;0.93;;;;;;;21.93;nan;99509.72;5050268;28;20071;-76
2021/08/07 08:05:24;;;;;;;2.03;0.98;;;;;;;22.13;nan;99495.69;5050490;28;20033;-76
2021/08/07 08:07:50;;;;;;;1.77;1.00;;;;;;;22.19;nan;99498.19;5050864;28;20068;-77
2021/08/07 08:10:16;;;;;;;2.35;1.08;;;;;;;22.05;nan;99497.78;5048621;28;20037;-76
2021/08/07 08:12:41;;;;;;;2.22;0.90;;;;;;;21.99;nan;99495.28;5050163;28;20404;-76
2021/08/07 08:15:07;;;;;;;2.92;1.13;;;;;;;22.01;nan;99493.94;5048297;28;20451;-76
2021/08/07 08:17:33;;;;;;;1.73;1.15;;;;;;;22.10;nan;99488.94;5050901;28;20062;-76
2021/08/07 08:19:59;;;;;;;3.10;1.02;;;;;;;22.17;nan;99494.94;5050647;28;20345;-76
2021/08/07 08:22:24;;;;;;;3.95;1.10;;;;;;;22.10;nan;99496.22;5050193;28;20429;-76
2021/08/07 08:24:49;;;;;;;2.35;1.00;;;;;;;21.97;nan;99494.72;5050154;28;20037;-76
2021/08/07 08:27:18;;;;;;;2.50;0.98;;;;;;;22.15;nan;99494.38;5050831;28;20043;-76
2021/08/07 08:29:45;;;;;;;2.50;1.00;;;;;;;22.12;nan;99500.28;5050306;28;20041;-77
2021/08/07 08:32:10;;;;;;;1.65;0.82;;;;;;;22.22;nan;99502.28;5050239;28;20041;-76
2021/08/07 08:34:36;;;;;;;1.60;0.90;;;;;;;22.36;nan;99492.75;5050312;28;20029;-76
2021/08/07 08:37:01;;;;;;;2.08;0.70;;;;;;;22.64;nan;99490.81;5049639;28;20037;-76
2021/08/07 08:39:26;;;;;;;2.42;1.10;;;;;;;22.94;nan;99495.66;5048979;28;20489;-76
2021/08/07 08:41:52;;;;;;;3.25;0.90;;;;;;;22.94;nan;99498.34;5047729;28;20103;-76
2021/08/07 08:44:18;;;;;;;2.22;0.90;;;;;;;23.08;nan;99509.53;5049730;28;20039;-76
2021/08/07 08:46:44;;;;;;;3.72;1.17;;;;;;;23.26;nan;99521.78;5047616;28;20094;-76
2021/08/07 08:49:14;;;;;;;2.05;0.80;;;;;;;23.42;nan;99504.59;5049679;28;20097;-76
2021/08/07 08:51:39;;;;;;;3.03;0.98;;;;;;;23.73;nan;99502.91;5050100;28;20032;-76
2021/08/07 08:54:05;;;;;;;2.15;0.98;;;;;;;24.41;nan;99501.19;5049676;28;20083;-76
2021/08/07 08:56:34;;;;;;;3.47;1.05;;;;;;;24.91;nan;99491.53;5049020;28;20063;-76
2021/08/07 08:59:01;;;;;;;2.25;0.80;;;;;;;25.30;nan;99488.25;5049197;28;20037;-76
2021/08/07 09:01:27;;;;;;;1.80;0.70;;;;;;;25.76;nan;99486.16;5049745;28;20032;-76
2021/08/07 09:03:52;;;;;;;2.13;0.70;;;;;;;26.62;nan;99494.09;5049293;28;20028;-77
2021/08/07 09:06:18;;;;;;;1.98;0.80;;;;;;;27.09;nan;99487.97;5049059;28;20056;-77
2021/08/07 09:09:00;;;;;;;2.25;0.90;;;;;;;27.30;nan;99490.53;5048714;28;20452;-76
2021/08/07 09:11:26;;;;;;;2.58;0.90;;;;;;;27.87;nan;99482.53;5049476;28;20110;-76
2021/08/07 09:14:18;;;;;;;1.30;0.60;;;;;;;27.41;nan;99483.91;5048791;28;20910;-76
2021/08/07 09:17:04;;;;;;;1.92;0.80;;;;;;;26.57;nan;99478.69;5048378;28;20033;-76
2021/08/07 09:19:50;;;;;;;1.70;0.70;;;;;;;26.97;nan;99474.00;5045992;28;20697;-76
2021/08/07 09:22:29;;;;;;;1.67;0.77;;;;;;;27.09;nan;99465.47;5035926;28;20399;-76
2021/08/07 09:25:10;;;;;;;2.05;0.80;;;;;;;27.17;nan;99458.59;5028756;28;20828;-76
2021/08/07 09:27:42;;;;;;;;;;;;;;;27.10;nan;99454.34;5034958;28;20033;-78
2021/08/07 09:30:16;;;;;;;;;;;;;;;26.77;nan;99447.88;5048110;28;19943;-77
2021/08/07 09:32:43;;;;;;;2.38;0.80;;;;;;;27.08;nan;99453.00;5049858;28;20004;-77
2021/08/07 09:41:59;;;;;;;3.25;1.02;;;;;;;26.98;nan;99459.34;5042322;28;20260;-76
2021/08/07 09:44:25;;;;;;;2.50;1.00;;;;;;;27.06;nan;99457.91;5046622;28;20370;-76
2021/08/07 09:46:50;;;;;;;1.75;0.90;;;;;;;27.01;nan;99466.09;5048220;28;20040;-77
2021/08/07 09:49:16;;;;;;;2.00;0.93;;;;;;;26.57;nan;99467.03;5045432;28;20041;-76
2021/08/07 09:51:42;;;;;;;2.88;0.90;;;;;;;26.86;nan;99454.31;5048570;28;20033;-76
2021/08/07 09:54:08;;;;;;;3.45;0.98;;;;;;;26.25;nan;99462.91;5048037;28;20052;-77
2021/08/07 09:56:54;;;;;;;3.25;1.10;;;;;;;25.92;nan;99461.75;5049064;28;20501;-75
2021/08/07 09:59:22;;;;;;;3.58;0.90;;;;;;;26.17;nan;99460.78;5050587;28;20393;-76
2021/08/07 10:01:49;;;;;;;5.20;1.33;;;;;;;26.21;nan;99459.13;5051938;28;20061;-76
2021/08/07 10:04:16;;;;;;;1.77;0.90;;;;;;;26.20;nan;99446.69;5051605;28;20036;-77
2021/08/07 10:06:44;;;;;;;2.80;1.00;;;;;;;26.22;nan;99458.06;5048449;28;20037;-77
2021/08/07 10:09:10;;;;;;;3.00;0.90;;;;;;;26.35;nan;99457.41;5050955;28;20036;-77
2021/08/07 10:11:36;;;;;;;2.60;1.00;;;;;;;26.47;nan;99455.13;5051278;28;20121;-76
2021/08/07 10:14:02;;;;;;;2.47;1.02;;;;;;;26.43;nan;99450.56;5051537;28;20066;-77
2021/08/07 10:16:30;;;;;;;3.60;1.02;;;;;;;26.28;nan;99446.06;5045756;28;20036;-76
2021/08/07 10:18:56;;;;;;;3.00;0.80;;;;;;;25.88;nan;99439.03;5051366;28;20106;-76
2021/08/07 10:21:21;;;;;;;;;;;;;;;25.50;nan;99435.94;5049415;28;20387;-76
2021/08/07 10:23:50;;;;;;;2.85;1.10;;;;;;;25.24;nan;99435.22;5051330;28;19933;-76
2021/08/07 10:26:19;;;;;;;3.10;1.10;;;;;;;24.99;nan;99437.69;5050978;28;20513;-76
2021/08/07 10:28:47;;;;;;;2.55;1.00;;;;;;;24.83;nan;99440.69;5050851;28;20152;-76
2021/08/07 10:31:14;;;;;;;2.38;0.90;;;;;;;24.78;nan;99445.00;5048584;28;20405;-76
2021/08/07 10:33:43;;;;;;;3.08;0.90;;;;;;;24.58;nan;99437.72;5051235;28;20357;-76
2021/08/07 10:36:10;;;;;;;2.13;0.90;;;;;;;24.61;nan;99449.91;5050162;28;20032;-77
2021/08/07 10:38:37;;;;;;;2.45;1.10;;;;;;;24.59;nan;99442.03;5048939;28;20049;-76
2021/08/07 10:41:03;;;;;;;1.85;0.85;;;;;;;24.61;nan;99432.88;5046226;28;20043;-76
2021/08/07 10:43:32;;;;;;;2.00;0.80;;;;;;;24.59;nan;99427.72;5055423;28;20048;-76
2021/08/07 10:45:58;;;;;;;3.88;1.10;;;;;;;24.48;nan;99437.75;5051497;28;20576;-75
2021/08/07 10:48:43;;;;;;;2.17;0.85;;;;;;;24.52;nan;99421.78;5048845;28;20099;-76
2021/08/07 10:51:27;;;;;;;1.73;0.80;;;;;;;24.44;nan;99433.13;5051199;28;20055;-76
2021/08/07 10:54:00;;;;;;;2.15;0.90;;;;;;;24.50;nan;99432.06;5050200;28;20032;-76
2021/08/07 10:56:31;;;;;;;2.70;0.90;;;;;;;24.42;nan;99432.56;5049878;28;20099;-76
2021/08/07 10:58:57;;;;;;;;;;;;;;;24.12;nan;99437.69;5051535;28;20045;-76
2021/08/07 11:01:23;;;;;;;2.30;0.90;;;;;;;23.91;nan;99434.13;5050646;28;20289;-76
2021/08/07 11:04:02;;;;;;;1.52;0.80;;;;;;;24.19;nan;99415.78;5049535;28;20413;-76
2021/08/07 11:06:43;;;;;;;2.70;1.00;;;;;;;24.06;nan;99417.13;5029494;28;20033;-76
2021/08/07 11:09:15;;;;;;;2.22;1.00;;;;;;;24.20;nan;99422.84;5023814;28;20412;-76
2021/08/07 11:11:41;;;;;;;1.92;1.00;;;;;;;24.22;nan;99426.06;5030983;28;20033;-76
2021/08/07 11:14:21;;;;;;;3.17;1.10;;;;;;;24.20;nan;99405.81;5030179;28;20065;-76
2021/08/07 11:17:05;;;;;;;4.03;1.00;;;;;;;24.20;nan;99401.22;5030354;28;20044;-76
2021/08/07 11:19:48;;;;;;;3.60;1.38;;;;;;;24.09;nan;99405.78;5041392;28;20041;-76
2021/08/07 11:22:15;;;;;;;3.03;1.00;;;;;;;24.02;nan;99405.25;5050593;28;20047;-76
2021/08/07 11:24:43;;;;;;;3.97;1.00;;;;;;;23.81;nan;99404.41;5051294;28;20394;-76
2021/08/07 11:27:09;;;;;;;2.50;0.95;;;;;;;23.77;nan;99410.63;5049161;28;20037;-76
2021/08/07 11:29:34;;;;;;;1.60;0.95;;;;;;;23.74;nan;99403.84;5051704;28;20051;-76
2021/08/07 11:32:16;;;;;;;1.88;1.00;;;;;;;23.72;nan;99406.78;5048331;28;20049;-76
2021/08/07 11:34:47;;;;;;;2.75;1.00;;;;;;;23.64;nan;99414.56;5035800;28;20090;-76
2021/08/07 11:37:15;;;;;;;2.85;1.00;;;;;;;23.58;nan;99412.94;5028735;28;20043;-76
2021/08/07 11:40:09;;;;;;;2.05;1.00;;;;;;;23.54;nan;99394.56;5030538;28;20095;-75
2021/08/07 11:42:39;;;;;;;3.88;1.35;;;;;;;23.46;nan;99384.31;5049917;28;20047;-76
2021/08/07 11:45:04;;;;;;;4.35;1.10;;;;;;;23.63;nan;99384.09;5049348;28;20086;-76
2021/08/07 11:47:31;;;;;;;2.50;1.00;;;;;;;23.55;nan;99381.91;5050297;28;20436;-76
2021/08/07 11:49:58;;;;;;;3.20;1.00;;;;;;;23.48;nan;99384.84;5049280;28;20059;-76
2021/08/07 11:52:29;;;;;;;3.20;1.17;;;;;;;23.41;nan;99372.69;5048463;28;20379;-75
2021/08/07 11:54:56;;;;;;;1.52;0.93;;;;;;;23.46;nan;99359.22;5048652;28;20033;-77
2021/08/07 11:57:25;;;;;;;2.15;1.00;;;;;;;23.48;nan;99365.97;5049397;28;20041;-76
2021/08/07 11:59:50;;;;;;;2.67;1.10;;;;;;;23.25;nan;99366.41;5049523;28;20041;-76
2021/08/07 12:02:16;;;;;;;4.28;1.30;;;;;;;23.35;nan;99379.13;5049084;28;20041;-75